Time;durP1;ratioP1;P1;durP2;ratioP2;P2;SDS_P1;SDS_P2;PMS_P1;PMS_P2;Temp;Humidity;BMP_temperature;BMP_pressure;BME280_temperature;BME280_humidity;BME280_pressure;Samples;Min_cycle;Max_cycle;Signal;HPM_P1;HPM_P2
2023/06/20 00:02:23;;;;;;;10.05;9.02;;;17.80;99.90;;;;;;5052040;28;20037;-36
2023/06/20 00:04:48;;;;;;;13.40;9.02;;;17.80;99.90;;;;;;5052404;28;20065;-38
2023/06/20 00:07:14;;;;;;;10.55;8.20;;;17.80;99.90;;;;;;5051840;28;20098;-35
2023/06/20 00:09:40;;;;;;;11.43;8.35;;;17.80;99.90;;;;;;5033923;28;20041;-35
2023/06/20 00:12:06;;;;;;;9.55;8.63;;;17.70;99.90;;;;;;5051983;28;20037;-36
2023/06/20 00:14:32;;;;;;;14.73;9.25;;;17.80;99.90;;;;;;5051931;28;20083;-37
2023/06/20 00:16:59;;;;;;;12.38;8.48;;;17.80;99.90;;;;;;5034264;28;20525;-36
2023/06/20 00:19:26;;;;;;;10.95;8.88;;;17.80;99.90;;;;;;5051727;28;20045;-36
2023/06/20 00:21:52;;;;;;;10.57;8.73;;;17.80;99.90;;;;;;5033951;28;20037;-36
2023/06/20 00:24:17;;;;;;;10.75;9.70;;;17.80;99.90;;;;;;5051589;28;20162;-35
2023/06/20 00:26:43;;;;;;;10.07;8.93;;;17.80;99.90;;;;;;5051508;28;20033;-33
2023/06/20 00:29:08;;;;;;;10.73;9.57;;;17.80;99.90;;;;;;5051513;28;20029;-36
2023/06/20 00:31:36;;;;;;;11.02;9.40;;;17.80;99.90;;;;;;5051635;28;20442;-36
2023/06/20 00:34:02;;;;;;;10.52;9.07;;;17.80;99.90;;;;;;5051575;28;20063;-36
2023/06/20 00:36:27;;;;;;;10.90;9.07;;;17.90;99.90;;;;;;5051356;28;20520;-34
2023/06/20 00:38:54;;;;;;;11.90;9.52;;;17.80;99.90;;;;;;5051557;28;20047;-37
2023/06/20 00:41:20;;;;;;;10.73;9.40;;;17.80;99.90;;;;;;5051134;28;20045;-35
2023/06/20 00:43:49;;;;;;;11.40;10.30;;;17.80;99.90;;;;;;5051010;28;20103;-34
2023/06/20 00:46:23;;;;;;;20.08;11.00;;;17.80;99.90;;;;;;5051257;28;20029;-37
2023/06/20 00:48:49;;;;;;;11.27;9.20;;;17.80;99.90;;;;;;4984379;28;1310738;-39
2023/06/20 00:51:16;;;;;;;10.88;9.75;;;17.80;99.90;;;;;;5047198;28;20083;-36
2023/06/20 00:53:43;;;;;;;13.00;9.60;;;17.80;99.90;;;;;;5053610;28;20071;-37
2023/06/20 00:56:12;;;;;;;12.80;10.27;;;17.80;99.90;;;;;;5050582;28;20470;-38
2023/06/20 00:58:38;;;;;;;9.80;8.80;;;17.80;99.90;;;;;;5049719;28;20041;-34
2023/06/20 01:01:04;;;;;;;12.50;10.52;;;17.70;99.90;;;;;;5048828;28;20425;-35
2023/06/20 01:03:31;;;;;;;12.15;10.48;;;17.70;99.90;;;;;;5049209;28;20044;-36
2023/06/20 01:06:20;;;;;;;12.30;10.48;;;17.70;99.90;;;;;;5048942;28;20080;-35
2023/06/20 01:08:54;;;;;;;12.77;9.63;;;17.70;99.90;;;;;;5044397;28;20052;-35
2023/06/20 01:11:45;;;;;;;12.90;9.80;;;17.70;99.90;;;;;;5050767;28;20037;-36
2023/06/20 01:14:47;;;;;;;12.25;10.95;;;17.70;99.90;;;;;;5048265;28;20401;-37
2023/06/20 01:17:12;;;;;;;13.32;11.35;;;17.70;99.90;;;;;;5048599;28;20080;-35
2023/06/20 01:19:53;;;;;;;12.88;10.48;;;17.70;99.90;;;;;;5049115;28;20423;-44
2023/06/20 01:22:44;;;;;;;11.38;10.13;;;17.70;99.90;;;;;;5049373;28;20048;-36
2023/06/20 01:25:18;;;;;;;16.27;11.52;;;17.70;99.90;;;;;;5039584;28;20428;-37
2023/06/20 01:28:24;;;;;;;14.88;11.15;;;17.80;99.90;;;;;;5049529;28;20037;-36
2023/06/20 01:31:05;;;;;;;11.98;10.48;;;17.70;99.90;;;;;;5042969;28;20506;-38
2023/06/20 01:33:36;;;;;;;13.40;11.77;;;17.80;99.90;;;;;;5047703;28;20388;-37
2023/06/20 01:36:04;;;;;;;13.60;10.60;;;17.80;99.90;;;;;;5048871;28;20049;-35
2023/06/20 01:38:32;;;;;;;17.40;11.52;;;17.80;99.90;;;;;;5048713;28;20444;-35
2023/06/20 01:41:00;;;;;;;14.98;11.80;;;17.80;99.90;;;;;;5046466;28;20037;-35
2023/06/20 01:43:29;;;;;;;12.70;11.43;;;17.80;99.90;;;;;;5047668;28;20512;-36
2023/06/20 01:45:56;;;;;;;11.85;10.65;;;17.80;99.90;;;;;;5041549;28;20037;-34
2023/06/20 01:48:24;;;;;;;13.23;11.27;;;17.80;99.90;;;;;;5046504;28;20037;-37
2023/06/20 01:50:52;;;;;;;14.30;11.77;;;17.80;99.90;;;;;;5030226;28;20061;-35
2023/06/20 01:53:20;;;;;;;14.73;11.88;;;17.80;99.90;;;;;;5044344;28;20045;-36
2023/06/20 01:55:48;;;;;;;13.43;11.57;;;17.90;99.90;;;;;;5049054;28;20032;-35
2023/06/20 01:58:15;;;;;;;14.18;12.10;;;17.90;99.90;;;;;;5048200;28;20036;-35
2023/06/20 02:00:42;;;;;;;15.90;12.73;;;17.90;99.90;;;;;;5047643;28;20490;-34
2023/06/20 02:03:09;;;;;;;14.45;11.77;;;17.90;99.90;;;;;;5048038;28;20037;-37
2023/06/20 02:05:38;;;;;;;15.48;12.25;;;17.90;99.90;;;;;;5045606;28;20094;-35
2023/06/20 02:08:05;;;;;;;14.60;13.13;;;17.90;99.90;;;;;;5049019;28;20037;-36
2023/06/20 02:10:32;;;;;;;16.23;13.15;;;17.90;99.90;;;;;;5047789;28;20029;-38
2023/06/20 02:12:58;;;;;;;16.75;12.85;;;17.90;99.90;;;;;;5048450;28;20549;-36
2023/06/20 02:15:26;;;;;;;13.80;12.32;;;17.90;99.90;;;;;;5048601;28;20469;-34
2023/06/20 02:17:51;;;;;;;16.70;13.43;;;17.90;99.90;;;;;;5043426;28;20063;-42
2023/06/20 02:20:17;;;;;;;14.00;12.27;;;17.90;99.90;;;;;;5044597;28;20032;-37
2023/06/20 02:22:46;;;;;;;16.98;13.65;;;17.90;99.90;;;;;;5044292;28;20106;-40
2023/06/20 02:25:19;;;;;;;20.42;13.20;;;17.90;99.90;;;;;;5047662;28;20064;-40
2023/06/20 02:27:48;;;;;;;17.77;12.95;;;17.90;99.90;;;;;;5049640;28;20033;-37
2023/06/20 02:30:15;;;;;;;15.75;11.68;;;17.90;99.90;;;;;;5049445;28;20029;-37
2023/06/20 02:32:42;;;;;;;15.20;12.88;;;17.90;99.90;;;;;;5050655;28;20033;-37
2023/06/20 02:35:10;;;;;;;20.45;13.25;;;18.00;99.90;;;;;;5050026;28;20072;-36
2023/06/20 02:37:39;;;;;;;16.25;12.70;;;18.00;99.90;;;;;;5047922;28;20127;-39
2023/06/20 02:40:06;;;;;;;16.52;13.45;;;18.00;99.90;;;;;;5048060;28;20045;-39
2023/06/20 02:42:32;;;;;;;19.02;13.95;;;18.00;99.90;;;;;;5028853;28;20112;-36
2023/06/20 02:44:57;;;;;;;17.13;13.90;;;18.00;99.90;;;;;;5048714;28;20037;-36
2023/06/20 02:47:42;;;;;;;14.32;12.93;;;18.10;99.90;;;;;;5029721;28;20394;-36
2023/06/20 02:50:29;;;;;;;17.33;13.52;;;18.10;99.90;;;;;;5048005;28;20438;-37
2023/06/20 02:53:27;;;;;;;13.63;12.23;;;18.10;99.90;;;;;;5026343;28;20045;-35
2023/06/20 02:56:01;;;;;;;17.15;14.63;;;18.10;99.90;;;;;;5043734;28;20501;-36
2023/06/20 02:58:29;;;;;;;17.08;14.55;;;18.10;99.90;;;;;;5040226;28;20447;-37
2023/06/20 03:00:58;;;;;;;14.60;12.85;;;18.10;99.90;;;;;;5047370;28;20035;-38
2023/06/20 03:03:35;;;;;;;15.70;13.55;;;18.10;99.90;;;;;;5046133;28;20033;-37
2023/06/20 03:06:02;;;;;;;15.10;13.60;;;18.10;99.90;;;;;;5048010;28;20037;-37
2023/06/20 03:08:30;;;;;;;16.73;13.32;;;18.10;99.90;;;;;;5048636;28;20067;-41
2023/06/20 03:10:57;;;;;;;18.48;15.02;;;18.10;99.90;;;;;;5047828;28;20494;-37
2023/06/20 03:13:24;;;;;;;16.55;13.50;;;18.10;99.90;;;;;;5047359;28;20462;-40
2023/06/20 03:15:50;;;;;;;14.80;13.13;;;18.10;99.90;;;;;;5047327;28;20481;-36
2023/06/20 03:18:19;;;;;;;16.50;14.52;;;18.10;99.90;;;;;;5048297;28;20044;-35
2023/06/20 03:20:48;;;;;;;16.10;13.23;;;18.10;99.90;;;;;;5047282;28;20398;-36
2023/06/20 03:23:14;;;;;;;16.15;13.85;;;18.10;99.90;;;;;;5048946;28;20428;-37
2023/06/20 03:25:40;;;;;;;14.45;12.23;;;18.10;99.90;;;;;;5045466;28;20035;-40
2023/06/20 03:28:06;;;;;;;15.00;12.48;;;18.10;99.90;;;;;;5050282;28;20099;-35
2023/06/20 03:30:32;;;;;;;15.77;14.07;;;18.10;99.90;;;;;;5050698;28;20486;-37
2023/06/20 03:32:58;;;;;;;15.32;13.23;;;18.10;99.90;;;;;;5050863;28;20073;-35
2023/06/20 03:35:24;;;;;;;13.38;11.93;;;18.10;99.90;;;;;;5050875;28;20117;-40
2023/06/20 03:37:50;;;;;;;16.73;13.50;;;18.10;99.90;;;;;;5051780;28;20068;-37
2023/06/20 03:40:16;;;;;;;16.15;13.55;;;18.10;99.90;;;;;;5051148;28;20524;-37
2023/06/20 03:42:42;;;;;;;14.20;12.05;;;18.10;99.90;;;;;;5050636;28;20128;-39
2023/06/20 03:45:08;;;;;;;13.40;12.00;;;18.10;99.90;;;;;;5050344;28;20033;-39
2023/06/20 03:47:34;;;;;;;15.95;12.77;;;18.10;99.90;;;;;;5050766;28;20438;-37
2023/06/20 03:50:00;;;;;;;15.20;13.52;;;18.10;99.90;;;;;;5050993;28;20067;-40
2023/06/20 03:52:25;;;;;;;16.60;13.15;;;18.10;99.90;;;;;;5049911;28;20037;-41
2023/06/20 03:54:51;;;;;;;16.02;13.05;;;18.20;99.90;;;;;;5050932;28;20490;-37
2023/06/20 03:57:16;;;;;;;13.98;12.52;;;18.20;99.90;;;;;;5049659;28;20090;-36
2023/06/20 03:59:42;;;;;;;17.63;12.55;;;18.20;99.90;;;;;;5050498;28;20041;-38
2023/06/20 04:02:09;;;;;;;15.90;12.20;;;18.20;99.90;;;;;;5050703;28;20040;-37
2023/06/20 04:04:35;;;;;;;14.80;11.80;;;18.20;99.90;;;;;;5032774;28;20044;-39
2023/06/20 04:07:03;;;;;;;14.02;12.63;;;18.30;99.90;;;;;;5027332;28;20036;-37
2023/06/20 04:09:29;;;;;;;14.02;12.52;;;18.30;99.90;;;;;;5049033;28;20111;-38
2023/06/20 04:11:55;;;;;;;15.10;12.82;;;18.30;99.90;;;;;;5050819;28;20500;-38
2023/06/20 04:14:21;;;;;;;15.43;12.43;;;18.30;99.90;;;;;;5048271;28;20057;-40
2023/06/20 04:16:49;;;;;;;16.77;12.15;;;18.30;99.90;;;;;;5047014;28;20041;-38
2023/06/20 04:19:16;;;;;;;17.35;12.38;;;18.30;99.90;;;;;;5049843;28;20032;-37
2023/06/20 04:21:41;;;;;;;16.20;12.95;;;18.30;99.90;;;;;;5032500;28;20037;-36
2023/06/20 04:24:07;;;;;;;15.85;13.18;;;18.30;99.90;;;;;;5050800;28;20033;-37
2023/06/20 04:26:32;;;;;;;13.15;11.85;;;18.30;99.90;;;;;;5050712;28;20537;-37
2023/06/20 04:28:58;;;;;;;12.65;11.35;;;18.40;99.90;;;;;;5049922;28;20036;-37
2023/06/20 04:31:24;;;;;;;15.52;11.43;;;18.40;99.90;;;;;;5050153;28;20029;-36
2023/06/20 04:33:50;;;;;;;13.45;11.65;;;18.40;99.90;;;;;;5048749;28;20044;-39
2023/06/20 04:36:16;;;;;;;16.15;13.40;;;18.40;99.90;;;;;;5032257;28;20116;-35
2023/06/20 04:38:42;;;;;;;14.88;12.02;;;18.50;99.90;;;;;;5050701;28;20179;-37
2023/06/20 04:41:09;;;;;;;13.07;11.27;;;18.50;99.90;;;;;;5050236;28;20068;-38
2023/06/20 04:43:35;;;;;;;13.48;11.98;;;18.50;99.90;;;;;;5049268;28;20088;-38
2023/06/20 04:46:02;;;;;;;13.60;12.00;;;18.60;99.90;;;;;;5049126;28;20044;-36
2023/06/20 04:48:29;;;;;;;14.70;12.48;;;18.70;99.90;;;;;;5050278;28;20025;-38
2023/06/20 04:50:57;;;;;;;14.70;12.73;;;18.70;99.90;;;;;;5048954;28;20037;-35
2023/06/20 04:53:25;;;;;;;16.50;12.65;;;18.80;99.90;;;;;;5049590;28;20505;-37
2023/06/20 04:55:52;;;;;;;14.10;12.27;;;18.80;99.90;;;;;;5049301;28;20076;-39
2023/06/20 04:58:17;;;;;;;15.23;12.80;;;18.90;99.90;;;;;;5050691;28;20505;-41
2023/06/20 05:00:43;;;;;;;14.82;11.25;;;18.90;99.90;;;;;;5052547;28;20112;-34
2023/06/20 05:03:09;;;;;;;15.98;13.15;;;19.00;99.90;;;;;;5043310;28;20045;-37
2023/06/20 05:05:35;;;;;;;15.18;12.48;;;19.10;99.90;;;;;;5043115;28;20050;-41
2023/06/20 05:08:00;;;;;;;14.05;12.68;;;19.10;99.90;;;;;;5048746;28;20025;-43
2023/06/20 05:10:26;;;;;;;14.57;11.95;;;19.20;99.90;;;;;;5025666;28;20638;-39
2023/06/20 05:12:52;;;;;;;15.38;12.93;;;19.20;99.90;;;;;;5048841;28;20041;-38
2023/06/20 05:15:23;;;;;;;14.18;12.68;;;19.20;99.90;;;;;;5047833;28;20528;-37
2023/06/20 05:17:50;;;;;;;14.55;12.07;;;19.30;99.90;;;;;;5045839;28;20040;-40
2023/06/20 05:20:16;;;;;;;14.88;11.73;;;19.30;99.90;;;;;;5044329;28;20522;-39
2023/06/20 05:22:42;;;;;;;15.43;13.23;;;19.40;99.90;;;;;;5043175;28;20067;-44
2023/06/20 05:25:08;;;;;;;16.48;12.50;;;19.40;99.90;;;;;;5037155;28;20041;-40
2023/06/20 05:27:34;;;;;;;14.27;12.77;;;19.40;99.90;;;;;;5023685;28;20102;-40
2023/06/20 05:29:59;;;;;;;13.82;12.43;;;19.50;99.90;;;;;;5028335;28;20479;-41
2023/06/20 05:32:25;;;;;;;13.63;12.27;;;19.60;99.90;;;;;;5044593;28;20428;-45
2023/06/20 05:34:52;;;;;;;14.38;12.88;;;19.70;99.90;;;;;;5026959;28;20502;-44
2023/06/20 05:37:18;;;;;;;14.93;12.23;;;19.70;99.90;;;;;;5046723;28;20090;-42
2023/06/20 05:39:43;;;;;;;14.63;12.95;;;19.80;99.90;;;;;;5046973;28;20045;-42
2023/06/20 05:42:09;;;;;;;15.48;13.80;;;19.80;99.90;;;;;;5045617;28;20087;-37
2023/06/20 05:44:36;;;;;;;14.13;12.65;;;19.90;99.90;;;;;;5049198;28;20521;-38
2023/06/20 05:47:03;;;;;;;14.70;13.20;;;20.00;99.90;;;;;;5039751;28;20033;-41
2023/06/20 05:49:28;;;;;;;15.45;13.95;;;20.00;99.90;;;;;;5044170;28;20040;-39
2023/06/20 05:51:54;;;;;;;15.40;13.73;;;20.00;99.90;;;;;;5040997;28;20029;-38
2023/06/20 05:54:22;;;;;;;15.13;13.30;;;20.10;99.90;;;;;;5039308;28;20041;-42
2023/06/20 05:56:57;;;;;;;15.25;13.02;;;20.10;99.90;;;;;;5026785;28;20041;-43
2023/06/20 05:59:23;;;;;;;16.05;14.32;;;20.20;99.90;;;;;;5034131;28;20033;-41
2023/06/20 06:01:49;;;;;;;15.90;14.20;;;20.20;99.90;;;;;;5026771;28;20102;-36
2023/06/20 06:04:15;;;;;;;16.10;13.40;;;20.20;99.90;;;;;;5026094;28;20048;-36
2023/06/20 06:06:40;;;;;;;14.77;13.38;;;20.30;99.90;;;;;;5044862;28;20029;-37
2023/06/20 06:09:06;;;;;;;16.10;14.38;;;20.30;99.90;;;;;;5029816;28;20086;-37
2023/06/20 06:11:32;;;;;;;18.30;13.35;;;20.30;99.90;;;;;;5029657;28;20509;-36
2023/06/20 06:13:57;;;;;;;14.95;13.40;;;20.30;99.90;;;;;;5046822;28;20516;-35
2023/06/20 06:16:23;;;;;;;14.60;13.05;;;20.40;99.90;;;;;;5045838;28;20133;-35
2023/06/20 06:18:49;;;;;;;16.52;14.73;;;20.40;99.90;;;;;;5048243;28;20028;-37
2023/06/20 06:21:14;;;;;;;17.17;14.25;;;20.40;99.90;;;;;;5045844;28;20041;-36
2023/06/20 06:23:40;;;;;;;15.25;13.65;;;20.50;99.90;;;;;;5029550;28;20045;-37
2023/06/20 06:26:07;;;;;;;14.63;13.00;;;20.50;99.90;;;;;;5047238;28;20021;-34
2023/06/20 06:28:33;;;;;;;14.45;12.68;;;20.50;99.90;;;;;;5047283;28;20099;-36
2023/06/20 06:31:00;;;;;;;16.55;14.18;;;20.60;99.90;;;;;;5047888;28;20029;-37
2023/06/20 06:33:28;;;;;;;15.02;13.60;;;20.70;99.90;;;;;;5045546;28;20073;-36
2023/06/20 06:35:57;;;;;;;15.32;13.65;;;20.80;99.90;;;;;;5047916;28;20449;-36
2023/06/20 06:38:23;;;;;;;14.52;13.13;;;20.80;99.90;;;;;;5048234;28;20036;-34
2023/06/20 06:40:49;;;;;;;17.27;13.55;;;20.90;99.90;;;;;;5041259;28;20279;-35
2023/06/20 06:43:15;;;;;;;15.13;13.55;;;21.00;99.90;;;;;;5040893;28;20041;-35
2023/06/20 06:45:41;;;;;;;14.65;13.32;;;21.00;99.90;;;;;;5042868;28;20037;-35
2023/06/20 06:48:06;;;;;;;16.50;13.18;;;21.20;99.90;;;;;;5046970;28;20033;-35
2023/06/20 06:50:32;;;;;;;14.13;12.73;;;21.30;99.90;;;;;;5046322;28;20041;-37
2023/06/20 06:52:58;;;;;;;13.95;12.52;;;21.30;99.90;;;;;;5046838;28;20036;-36
2023/06/20 06:55:25;;;;;;;16.20;14.60;;;21.40;99.90;;;;;;5047966;28;20048;-38
2023/06/20 06:57:51;;;;;;;16.23;14.63;;;21.40;99.90;;;;;;5044795;28;20033;-36
2023/06/20 07:00:17;;;;;;;15.55;14.15;;;21.40;99.90;;;;;;5050730;28;20113;-37
2023/06/20 07:02:45;;;;;;;16.30;14.48;;;21.50;99.90;;;;;;5032766;28;20044;-36
2023/06/20 07:05:11;;;;;;;17.65;14.55;;;21.50;99.90;;;;;;5032732;28;20033;-38
2023/06/20 07:07:37;;;;;;;16.25;14.75;;;21.50;99.90;;;;;;5051052;28;20116;-34
2023/06/20 07:10:04;;;;;;;15.90;14.30;;;21.60;99.90;;;;;;5048836;28;20108;-36
2023/06/20 07:12:29;;;;;;;19.98;14.32;;;21.60;99.90;;;;;;5050394;28;20361;-36
2023/06/20 07:14:56;;;;;;;15.48;13.88;;;21.60;99.90;;;;;;5051594;28;20450;-36
2023/06/20 07:17:25;;;;;;;15.75;14.07;;;21.60;99.90;;;;;;5031994;28;20053;-38
2023/06/20 07:19:52;;;;;;;16.50;14.75;;;21.60;99.90;;;;;;5033383;28;20036;-36
2023/06/20 07:22:18;;;;;;;15.45;13.85;;;21.50;99.90;;;;;;5049947;28;20101;-36
2023/06/20 07:24:44;;;;;;;15.57;14.05;;;21.50;99.90;;;;;;5050603;28;20510;-35
2023/06/20 07:27:10;;;;;;;15.68;14.13;;;21.50;99.90;;;;;;5051062;28;20256;-37
2023/06/20 07:29:36;;;;;;;17.25;15.55;;;21.50;99.90;;;;;;5051419;28;20053;-37
2023/06/20 07:32:02;;;;;;;17.13;15.23;;;21.60;99.90;;;;;;5050641;28;20040;-35
2023/06/20 07:34:28;;;;;;;15.43;13.82;;;21.60;99.90;;;;;;5043094;28;20037;-37
2023/06/20 07:36:54;;;;;;;15.90;14.30;;;21.60;99.90;;;;;;5051368;28;20506;-36
2023/06/20 07:39:19;;;;;;;16.77;15.18;;;21.50;99.90;;;;;;5050820;28;20040;-36
2023/06/20 07:41:45;;;;;;;16.92;15.25;;;21.50;99.90;;;;;;5031913;28;20044;-38
2023/06/20 07:44:11;;;;;;;16.33;14.57;;;21.50;99.90;;;;;;5030992;28;20033;-34
2023/06/20 07:46:39;;;;;;;18.10;14.82;;;21.50;99.90;;;;;;5049817;28;20131;-36
2023/06/20 07:49:06;;;;;;;16.08;14.48;;;21.50;99.90;;;;;;5050076;28;20514;-41
2023/06/20 07:51:33;;;;;;;16.73;14.77;;;21.60;99.90;;;;;;5050326;28;20343;-40
2023/06/20 07:54:08;;;;;;;16.23;14.60;;;21.60;99.90;;;;;;5048927;28;20632;-41
2023/06/20 07:56:33;;;;;;;15.18;13.65;;;21.60;99.90;;;;;;5036157;28;20136;-41
2023/06/20 07:58:59;;;;;;;17.30;14.90;;;21.70;99.90;;;;;;5047079;28;20124;-41
2023/06/20 08:01:25;;;;;;;16.70;15.02;;;21.80;99.90;;;;;;5048389;28;20051;-41
2023/06/20 08:03:50;;;;;;;17.00;15.05;;;21.80;99.90;;;;;;5048987;28;20041;-42
2023/06/20 08:06:16;;;;;;;17.83;15.93;;;21.90;99.90;;;;;;5031583;28;20074;-41
2023/06/20 08:08:42;;;;;;;17.85;15.25;;;22.10;99.90;;;;;;5050081;28;20375;-41
2023/06/20 08:11:07;;;;;;;23.02;15.30;;;22.20;99.90;;;;;;5049189;28;20045;-40
2023/06/20 08:13:33;;;;;;;16.73;15.02;;;22.40;99.90;;;;;;5047749;28;20033;-42
2023/06/20 08:15:59;;;;;;;16.40;14.88;;;22.70;99.90;;;;;;5049155;28;20406;-39
2023/06/20 08:18:24;;;;;;;16.52;14.93;;;23.10;99.90;;;;;;5047066;28;20044;-42
2023/06/20 08:20:50;;;;;;;16.60;14.90;;;23.40;99.90;;;;;;5041412;28;20095;-42
2023/06/20 08:23:25;;;;;;;16.60;15.00;;;23.80;99.90;;;;;;5033523;28;20580;-41
2023/06/20 08:25:55;;;;;;;17.77;15.95;;;24.00;99.90;;;;;;5043995;28;20372;-42
2023/06/20 08:28:24;;;;;;;16.08;14.45;;;24.30;99.90;;;;;;5031020;28;20118;-42
2023/06/20 08:30:51;;;;;;;16.77;15.02;;;24.50;99.90;;;;;;5028200;28;20040;-39
2023/06/20 08:33:17;;;;;;;17.58;14.52;;;24.50;99.90;;;;;;5043753;28;20159;-42
2023/06/20 08:35:43;;;;;;;17.17;14.65;;;24.40;99.90;;;;;;5024684;28;20485;-42
2023/06/20 08:38:09;;;;;;;15.18;13.82;;;24.40;99.90;;;;;;5045101;28;20041;-42
2023/06/20 08:40:35;;;;;;;15.40;14.10;;;24.50;99.90;;;;;;5049164;28;20482;-43
2023/06/20 08:43:02;;;;;;;14.52;12.90;;;24.50;99.90;;;;;;5029859;28;20072;-42
2023/06/20 08:45:28;;;;;;;13.63;11.57;;;24.60;99.90;;;;;;5047453;28;20044;-41
2023/06/20 08:47:58;;;;;;;13.00;11.77;;;24.80;99.90;;;;;;5040701;28;20043;-41
2023/06/20 08:50:25;;;;;;;12.13;10.77;;;24.80;99.90;;;;;;5043910;28;20441;-41
2023/06/20 08:52:54;;;;;;;12.48;11.43;;;25.00;99.90;;;;;;5034793;28;20415;-40
2023/06/20 08:55:21;;;;;;;12.73;10.63;;;25.20;99.90;;;;;;5044855;28;20049;-43
2023/06/20 08:57:47;;;;;;;12.10;10.90;;;25.30;99.90;;;;;;5045348;28;20079;-40
2023/06/20 09:00:23;;;;;;;11.57;10.27;;;25.50;99.90;;;;;;5047877;28;20502;-38
2023/06/20 09:02:53;;;;;;;11.40;10.43;;;25.80;99.90;;;;;;5032656;28;20403;-43
2023/06/20 09:05:19;;;;;;;12.65;11.55;;;25.90;99.90;;;;;;5045722;28;20041;-43
2023/06/20 09:07:45;;;;;;;12.23;11.13;;;26.10;99.90;;;;;;5043438;28;20068;-42
2023/06/20 09:10:15;;;;;;;13.07;11.70;;;26.30;99.90;;;;;;5045474;28;20759;-43
2023/06/20 09:15:22;;;;;;;11.45;10.32;;;26.90;99.90;;;;;;3353137;26;20037;-33
2023/06/20 09:17:55;;;;;;;11.40;10.45;;;27.00;99.90;;;;;;5024797;28;20519;-34
2023/06/20 09:20:25;;;;;;;11.32;10.32;;;27.10;99.90;;;;;;5032332;28;20213;-34
2023/06/20 09:22:51;;;;;;;10.75;9.95;;;27.30;99.90;;;;;;5030516;28;20466;-34
2023/06/20 09:25:22;;;;;;;11.80;10.70;;;27.50;99.90;;;;;;5031335;28;20045;-34
2023/06/20 09:27:49;;;;;;;11.32;10.32;;;27.70;99.90;;;;;;5026906;28;20077;-34
2023/06/20 09:30:14;;;;;;;10.48;9.48;;;27.70;99.90;;;;;;5028322;28;20048;-34
2023/06/20 09:32:41;;;;;;;10.15;9.32;;;27.90;99.90;;;;;;5026971;28;20029;-31
2023/06/20 09:35:09;;;;;;;10.43;9.43;;;27.80;99.90;;;;;;5030464;28;20041;-33
2023/06/20 09:37:38;;;;;;;10.88;9.77;;;28.00;99.90;;;;;;5030550;28;20075;-33
2023/06/20 09:40:12;;;;;;;10.05;9.15;;;28.20;99.90;;;;;;5029538;28;20088;-34
2023/06/20 09:42:39;;;;;;;10.95;9.95;;;28.50;99.90;;;;;;5030483;28;20041;-31
2023/06/20 09:45:07;;;;;;;10.30;9.38;;;28.50;99.90;;;;;;5024504;28;20044;-34
2023/06/20 09:47:37;;;;;;;9.73;8.85;;;28.80;99.90;;;;;;5029401;28;20124;-34
2023/06/20 10:05:15;;;;;;;8.02;7.32;;;29.80;99.90;;;;;;5064906;28;20346;-32
2023/06/20 10:07:42;;;;;;;9.18;8.48;;;30.00;99.90;;;;;;5062729;28;20068;-32
2023/06/20 10:10:12;;;;;;;8.10;7.40;;;30.30;99.60;;;;;;5066220;28;20040;-32
2023/06/20 10:12:40;;;;;;;8.57;7.88;;;30.40;97.10;;;;;;5066573;28;20120;-32
2023/06/20 10:15:07;;;;;;;8.77;7.88;;;30.60;97.70;;;;;;5065693;28;20028;-32
2023/06/20 10:17:38;;;;;;;7.80;7.10;;;30.50;96.40;;;;;;5066401;28;20059;-32
2023/06/20 10:20:07;;;;;;;7.72;7.00;;;30.50;96.30;;;;;;5066477;28;20068;-32
2023/06/20 10:22:38;;;;;;;7.75;7.07;;;30.10;95.00;;;;;;5065365;28;20033;-32
2023/06/20 10:25:11;;;;;;;7.28;6.78;;;29.90;94.50;;;;;;5059797;28;20040;-32
2023/06/20 10:27:41;;;;;;;7.80;7.10;;;29.70;94.10;;;;;;5067879;28;20037;-32
2023/06/20 10:30:09;;;;;;;8.25;7.25;;;29.70;94.80;;;;;;5065559;28;20123;-32
2023/06/20 10:32:35;;;;;;;7.28;6.68;;;29.80;95.40;;;;;;5065291;28;20040;-32
2023/06/20 10:35:08;;;;;;;6.43;5.80;;;30.10;95.20;;;;;;5057334;28;20048;-32
2023/06/20 10:37:38;;;;;;;7.10;6.60;;;30.10;93.60;;;;;;5066507;28;20040;-32
2023/06/20 10:40:10;;;;;;;6.65;6.13;;;29.80;92.70;;;;;;5065297;28;20028;-32
2023/06/20 10:42:43;;;;;;;7.20;6.50;;;29.90;93.20;;;;;;5065333;28;20037;-32
2023/06/20 10:45:56;;;;;;;;;;;;;;;;;;;;;
2023/06/20 10:49:20;;;;;;;7.20;6.63;;;30.50;92.40;;;;;;5020926;28;20099;-32
2023/06/20 10:52:36;;;;;;;7.32;6.75;;;31.00;92.70;;;;;;5065027;28;20028;-32
2023/06/20 10:58:50;;;;;;;6.60;6.10;;;31.00;87.70;;;;;;4975422;28;20589;-32
2023/06/20 11:01:18;;;;;;;6.53;6.00;;;30.50;86.20;;;;;;4971024;28;20043;-32
2023/06/20 11:03:45;;;;;;;7.38;6.78;;;30.40;88.40;;;;;;5038506;28;20083;-34
2023/06/20 11:06:17;;;;;;;7.75;6.68;;;30.50;87.90;;;;;;5066910;28;20384;-33
2023/06/20 11:08:52;;;;;;;6.53;6.03;;;30.70;89.80;;;;;;5064836;28;20040;-32
2023/06/20 11:11:17;;;;;;;8.00;7.28;;;31.10;90.00;;;;;;5061194;28;20033;-32
2023/06/20 11:13:43;;;;;;;7.15;6.50;;;31.50;88.30;;;;;;5061170;28;20094;-32
2023/06/20 11:16:57;;;;;;;7.90;6.68;;;31.40;84.90;;;;;;5063173;28;20051;-32
2023/06/20 11:19:26;;;;;;;7.43;6.70;;;31.80;83.10;;;;;;5061895;28;20060;-32
2023/06/20 11:22:32;;;;;;;7.30;6.72;;;32.20;83.80;;;;;;5045578;28;20036;-33
2023/06/20 11:32:39;;;;;;;6.70;6.22;;;32.90;74.70;;;;;;5023231;28;20106;-33
2023/06/20 11:35:08;;;;;;;7.88;6.97;;;33.00;73.90;;;;;;5008889;28;20097;-32
2023/06/20 11:37:34;;;;;;;8.00;7.00;;;33.10;71.70;;;;;;5064870;28;20129;-32
2023/06/20 11:40:00;;;;;;;7.57;6.53;;;33.40;72.30;;;;;;5044127;28;20045;-33
2023/06/20 11:42:33;;;;;;;7.60;6.95;;;33.00;69.70;;;;;;5063829;28;20082;-32
2023/06/20 11:56:21;;;;;;;7.50;6.93;;;31.10;72.10;;;;;;5063692;28;20047;-32
2023/06/20 11:58:47;;;;;;;7.30;6.70;;;30.90;72.90;;;;;;5066510;28;20120;-32
2023/06/20 12:01:24;;;;;;;8.23;7.43;;;31.40;73.70;;;;;;5068300;28;20127;-32
2023/06/20 12:04:14;;;;;;;7.45;6.90;;;31.50;71.10;;;;;;5068762;28;20119;-32
2023/06/20 12:06:44;;;;;;;7.07;6.35;;;31.50;71.90;;;;;;5069992;28;20210;-32
2023/06/20 12:09:16;;;;;;;7.05;6.35;;;31.80;71.00;;;;;;5069605;28;20036;-32
2023/06/20 12:11:49;;;;;;;6.60;6.00;;;31.80;70.30;;;;;;5047284;28;20040;-32
2023/06/20 12:14:16;;;;;;;6.78;6.28;;;31.70;66.90;;;;;;5070147;28;20052;-33
2023/06/20 12:16:42;;;;;;;6.65;6.05;;;32.10;68.90;;;;;;5054129;28;20056;-33
2023/06/20 12:19:08;;;;;;;6.00;5.47;;;32.00;67.50;;;;;;5068342;28;20119;-33
2023/06/20 12:21:33;;;;;;;5.90;5.45;;;32.50;68.50;;;;;;5064329;28;20521;-33
2023/06/20 12:24:00;;;;;;;6.28;5.78;;;32.80;67.40;;;;;;5067842;28;20048;-33
2023/06/20 12:26:25;;;;;;;6.72;6.18;;;33.10;66.40;;;;;;5051540;28;20090;-33
2023/06/20 12:28:52;;;;;;;7.15;6.45;;;33.20;65.20;;;;;;5068457;28;20064;-33
2023/06/20 12:31:18;;;;;;;7.05;6.55;;;32.80;64.10;;;;;;5066882;28;20047;-33
2023/06/20 12:33:44;;;;;;;6.88;6.38;;;32.10;64.20;;;;;;5068253;28;20493;-33
2023/06/20 12:36:10;;;;;;;7.38;6.78;;;31.90;64.80;;;;;;5066980;28;20116;-33
2023/06/20 12:38:36;;;;;;;6.82;6.28;;;31.60;65.40;;;;;;5051098;28;20545;-33
2023/06/20 12:41:03;;;;;;;7.28;6.57;;;31.40;66.20;;;;;;5068854;28;20039;-33
2023/06/20 12:43:29;;;;;;;7.15;6.55;;;31.30;66.50;;;;;;5068705;28;20116;-33
2023/06/20 12:45:58;;;;;;;6.60;6.00;;;31.10;66.90;;;;;;5070070;28;20314;-33
2023/06/20 12:48:24;;;;;;;7.28;6.68;;;30.70;67.30;;;;;;5048010;28;20047;-33
2023/06/20 12:50:50;;;;;;;6.80;6.30;;;30.70;67.50;;;;;;5065181;28;20033;-33
2023/06/20 12:53:16;;;;;;;7.07;6.38;;;30.80;67.70;;;;;;5049071;28;20059;-33
2023/06/20 12:55:42;;;;;;;6.80;6.05;;;30.90;68.40;;;;;;5067155;28;20059;-33
2023/06/20 12:58:09;;;;;;;7.32;6.72;;;31.10;69.20;;;;;;5067825;28;20416;-33
2023/06/20 13:00:37;;;;;;;7.18;6.68;;;31.20;68.80;;;;;;5068460;28;20416;-33
2023/06/20 13:03:04;;;;;;;6.75;6.13;;;31.10;69.10;;;;;;5067505;28;20043;-33
2023/06/20 13:05:29;;;;;;;6.80;6.20;;;31.00;69.40;;;;;;5068409;28;20119;-33
2023/06/20 13:07:55;;;;;;;6.40;6.00;;;31.20;69.30;;;;;;5068745;28;20110;-33
2023/06/20 13:10:21;;;;;;;6.63;6.03;;;31.50;68.70;;;;;;5066876;28;20029;-33
2023/06/20 13:12:50;;;;;;;6.72;6.18;;;32.30;68.30;;;;;;5067151;28;20048;-33
2023/06/20 13:15:19;;;;;;;5.47;5.00;;;32.90;67.30;;;;;;5068154;28;20144;-34
2023/06/20 13:17:45;;;;;;;5.60;5.20;;;33.30;66.50;;;;;;5068105;28;20121;-33
2023/06/20 13:20:11;;;;;;;5.20;4.80;;;33.70;64.50;;;;;;5067767;28;20070;-33
2023/06/20 13:22:39;;;;;;;5.60;4.70;;;33.80;62.50;;;;;;5067994;28;20044;-33